Bakanas, Kazakhstan
Current Conditions -  °F | °C
As of 6:30 PM on Sunday 23 Nov 2014 (Local Time) from UAAA Reporting Station
Smoke Smoke  
Wind Chill: 30°   Ceiling: 20000
Heat Index: 36°   Visibility: 0.46mi
Dew Point: 32°   Wind: 7mph
Humidity: 87%   Direction: 220°SW
Pressure: 29.97"   Gusts: NA
Location:  44.83°N, 76.17°E
Report Text: UAAA 231230Z 22003MPS 0750 R23R/P2000N R23L/P2000D BR FU FEW100BKN200 02/M00 Q1015 R88/CLRD65 NOSIG
Loading
Personal Weather Stations






























Interactive Weather Map New forecast layout! Learn more

10-Day Weather Forecast

Advertisements
Track Severe Weather on mobile